Time;durP1;ratioP1;P1;durP2;ratioP2;P2;SDS_P1;SDS_P2;PMS_P1;PMS_P2;Temp;Humidity;BMP_temperature;BMP_pressure;BME280_temperature;BME280_humidity;BME280_pressure;Samples;Min_cycle;Max_cycle;Signal;HPM_P1;HPM_P2
2022/05/21 00:03:00;;;;;;;1.97;1.87;;;;;;;21.83;31.55;95489.53;6232500;28;103115;-56
2022/05/21 00:06:06;;;;;;;2.10;2.00;;;;;;;21.76;31.24;95491.75;6229012;28;102729;-57
2022/05/21 00:09:10;;;;;;;3.03;2.20;;;;;;;21.73;31.21;95495.78;6226231;28;103027;-56
2022/05/21 00:12:14;;;;;;;2.07;1.73;;;;;;;21.76;31.27;95489.09;6236197;28;103343;-56
2022/05/21 00:15:21;;;;;;;2.20;1.70;;;;;;;21.75;31.14;95495.50;6229548;28;103379;-57
2022/05/21 00:18:24;;;;;;;1.53;1.40;;;;;;;21.74;31.33;95488.59;6222680;28;102981;-55
2022/05/21 00:21:29;;;;;;;1.50;1.40;;;;;;;21.75;31.46;95482.19;6224647;27;103284;-56
2022/05/21 00:24:32;;;;;;;2.47;1.57;;;;;;;21.81;31.01;95486.31;6235346;28;104224;-57
2022/05/21 00:27:35;;;;;;;3.97;1.57;;;;;;;21.79;31.14;95488.50;6235752;28;103039;-56
2022/05/21 00:30:38;;;;;;;2.73;1.90;;;;;;;21.79;31.11;95480.50;6233847;28;103315;-56
2022/05/21 00:33:43;;;;;;;2.20;1.83;;;;;;;21.79;31.40;95473.31;6226031;28;103988;-56
2022/05/21 00:36:47;;;;;;;2.60;1.60;;;;;;;21.79;30.91;95475.19;6231830;28;104752;-56
2022/05/21 00:39:51;;;;;;;1.77;1.67;;;;;;;21.82;30.97;95469.28;6233226;28;102937;-57
2022/05/21 00:42:54;;;;;;;2.60;1.80;;;;;;;21.83;31.00;95470.88;6212265;28;104382;-56
2022/05/21 00:45:57;;;;;;;1.70;1.60;;;;;;;21.77;30.98;95470.16;6233992;28;103643;-56
2022/05/21 00:49:07;;;;;;;3.30;1.80;;;;;;;21.78;31.34;95466.41;6232336;28;102999;-57
2022/05/21 00:52:15;;;;;;;2.43;1.57;;;;;;;21.76;31.26;95462.44;6234312;28;104091;-56
2022/05/21 00:55:23;;;;;;;1.60;1.50;;;;;;;21.74;31.01;95454.75;6221756;28;103101;-56
2022/05/21 01:01:57;;;;;;;1.90;1.60;;;;;;;21.89;30.88;95444.94;6226975;28;103066;-55
2022/05/21 01:05:02;;;;;;;2.00;1.73;;;;;;;21.98;31.10;95449.28;6216874;28;104449;-55
2022/05/21 01:08:07;;;;;;;2.60;1.83;;;;;;;22.04;31.02;95444.66;6226655;28;104213;-55
2022/05/21 01:11:14;;;;;;;1.63;1.30;;;;;;;22.07;31.28;95442.19;6233604;28;103756;-55
2022/05/21 01:14:20;;;;;;;1.57;1.47;;;;;;;22.10;31.23;95441.59;6217626;28;103111;-55
2022/05/21 01:17:24;;;;;;;1.80;1.70;;;;;;;22.13;31.21;95439.44;6221503;28;104114;-56
2022/05/21 01:20:36;;;;;;;1.30;1.20;;;;;;;22.14;31.67;95441.00;6221452;28;104189;-55
2022/05/21 01:23:41;;;;;;;1.80;1.50;;;;;;;22.15;31.06;95442.59;6231917;28;103035;-55
2022/05/21 01:26:44;;;;;;;1.60;1.50;;;;;;;22.17;31.48;95445.75;6219916;28;103156;-55
2022/05/21 01:29:51;;;;;;;2.20;2.00;;;;;;;22.20;31.55;95451.28;6223399;28;106055;-56
2022/05/21 01:32:54;;;;;;;2.40;1.87;;;;;;;22.27;31.47;95459.66;6228342;27;104503;-55
2022/05/21 01:35:59;;;;;;;2.63;2.43;;;;;;;22.27;31.48;95450.88;6215667;28;103577;-57
2022/05/21 01:39:03;;;;;;;2.23;2.03;;;;;;;22.26;31.35;95446.63;6226465;28;103325;-55
2022/05/21 01:42:07;;;;;;;5.50;2.60;;;;;;;22.25;31.59;95439.72;6215596;28;104172;-56
2022/05/21 01:45:10;;;;;;;2.53;2.33;;;;;;;22.24;31.79;95440.81;6234047;28;102883;-56
2022/05/21 01:48:18;;;;;;;6.20;2.77;;;;;;;22.25;32.08;95445.06;6229281;28;103989;-55
2022/05/21 01:51:22;;;;;;;3.23;3.03;;;;;;;22.23;32.14;95445.38;6210871;28;104180;-56
2022/05/21 01:54:26;;;;;;;3.33;2.60;;;;;;;22.20;32.33;95450.50;6229285;28;103215;-56
2022/05/21 01:57:29;;;;;;;3.10;2.60;;;;;;;22.16;32.47;95447.63;6232331;28;102906;-56
2022/05/21 02:00:32;;;;;;;2.90;2.70;;;;;;;22.15;32.00;95440.72;6230304;28;104012;-55
2022/05/21 02:03:36;;;;;;;3.10;2.60;;;;;;;22.13;32.66;95434.09;6216178;28;104434;-56
2022/05/21 02:06:39;;;;;;;4.67;2.80;;;;;;;22.14;32.25;95433.00;6216959;28;104200;-56
2022/05/21 02:09:44;;;;;;;3.20;2.20;;;;;;;22.13;32.58;95429.56;6216507;28;104340;-57
2022/05/21 02:12:47;;;;;;;3.37;2.87;;;;;;;22.11;32.06;95421.84;6227335;28;103624;-56
2022/05/21 02:15:50;;;;;;;3.00;2.70;;;;;;;22.10;32.33;95428.28;6203626;28;103070;-55
2022/05/21 02:18:53;;;;;;;2.97;2.67;;;;;;;22.13;32.49;95412.78;6231706;28;104281;-56
2022/05/21 02:21:57;;;;;;;2.47;2.27;;;;;;;22.11;32.41;95424.53;6229202;28;104297;-56
2022/05/21 02:25:01;;;;;;;2.30;2.10;;;;;;;22.11;32.50;95423.72;6214358;28;103014;-55
2022/05/21 02:28:05;;;;;;;2.30;2.10;;;;;;;22.10;32.41;95414.94;6231342;28;104168;-56
2022/05/21 02:31:08;;;;;;;4.53;2.00;;;;;;;22.10;32.67;95414.94;6231573;28;103103;-56
2022/05/21 02:34:11;;;;;;;3.07;2.67;;;;;;;22.09;32.53;95418.69;6230770;28;104251;-55
2022/05/21 02:40:36;;;;;;;2.60;2.10;;;;;;;22.07;32.23;95415.53;6228277;28;104194;-55
2022/05/21 02:43:40;;;;;;;2.50;2.30;;;;;;;22.08;32.79;95419.78;6231041;27;104057;-56
2022/05/21 02:46:43;;;;;;;2.97;2.50;;;;;;;22.07;32.41;95407.56;6235298;28;103539;-56
2022/05/21 02:49:46;;;;;;;2.30;2.10;;;;;;;22.11;32.08;95399.75;6228602;28;104558;-55
2022/05/21 02:52:50;;;;;;;3.00;2.43;;;;;;;22.11;32.42;95418.41;6235095;28;103605;-55
2022/05/21 02:55:55;;;;;;;3.00;2.30;;;;;;;22.09;33.00;95408.03;6235754;28;104209;-56
2022/05/21 02:58:58;;;;;;;2.40;2.20;;;;;;;22.07;33.02;95404.88;6225917;27;104381;-55
2022/05/21 03:02:01;;;;;;;2.43;2.23;;;;;;;22.13;32.98;95418.09;6233831;28;103197;-55
2022/05/21 03:05:05;;;;;;;2.50;2.30;;;;;;;22.07;32.50;95415.53;6236909;28;104143;-57
2022/05/21 03:11:27;;;;;;;2.57;2.30;;;;;;;22.07;33.10;95428.88;6212282;28;104205;-56
2022/05/21 03:14:30;;;;;;;2.60;2.40;;;;;;;22.09;32.44;95434.69;6236232;28;103310;-56
2022/05/21 03:17:34;;;;;;;2.93;2.10;;;;;;;22.06;33.06;95437.94;6228599;28;102917;-56
2022/05/21 03:20:38;;;;;;;2.00;1.80;;;;;;;22.06;32.79;95432.63;6224840;28;103092;-56
2022/05/21 03:23:41;;;;;;;2.77;2.40;;;;;;;22.04;33.02;95432.13;6223566;28;104568;-56
2022/05/21 03:26:46;;;;;;;2.00;1.90;;;;;;;22.03;32.51;95430.56;6235637;28;103419;-56
2022/05/21 03:29:49;;;;;;;3.40;1.77;;;;;;;22.04;32.40;95426.81;6221685;28;103273;-56
2022/05/21 03:32:52;;;;;;;2.30;2.10;;;;;;;22.04;32.28;95421.47;6217422;28;104233;-56
2022/05/21 03:35:55;;;;;;;2.37;2.17;;;;;;;22.03;32.49;95414.56;6216814;28;103074;-56
2022/05/21 03:38:59;;;;;;;2.77;2.03;;;;;;;22.05;32.90;95415.06;6233686;28;104275;-56
2022/05/21 03:42:05;;;;;;;2.10;1.90;;;;;;;22.07;32.24;95420.09;6234427;28;104135;-56
2022/05/21 03:45:10;;;;;;;3.80;1.67;;;;;;;22.06;32.67;95421.97;6225794;27;104273;-56
2022/05/21 03:48:15;;;;;;;2.10;1.80;;;;;;;22.07;32.31;95420.09;6232797;28;104065;-56
2022/05/21 03:51:18;;;;;;;2.20;2.00;;;;;;;22.05;32.70;95428.38;6223107;28;104212;-56
2022/05/21 03:54:23;;;;;;;1.73;1.63;;;;;;;22.06;32.63;95429.97;6229323;28;103419;-56
2022/05/21 03:57:28;;;;;;;1.93;1.83;;;;;;;22.07;32.46;95438.75;6208178;28;103085;-56
2022/05/21 04:00:32;;;;;;;1.83;1.73;;;;;;;22.10;32.26;95435.47;6233462;28;104010;-57
2022/05/21 04:03:35;;;;;;;2.87;2.60;;;;;;;22.07;32.24;95436.06;6219494;28;104150;-56
2022/05/21 04:06:39;;;;;;;2.27;1.93;;;;;;;22.09;32.62;95439.22;6227219;28;104633;-56
2022/05/21 04:09:42;;;;;;;2.50;2.30;;;;;;;22.06;32.84;95451.28;6225878;28;103316;-56
2022/05/21 04:12:47;;;;;;;2.40;2.20;;;;;;;22.07;32.76;95452.06;6233204;28;104243;-56
2022/05/21 04:15:50;;;;;;;2.60;2.40;;;;;;;22.07;32.83;95452.06;6233729;28;103222;-56
2022/05/21 04:18:53;;;;;;;3.30;1.97;;;;;;;22.06;32.51;95458.47;6222599;28;103543;-56
2022/05/21 04:21:57;;;;;;;3.10;2.80;;;;;;;22.05;32.58;95456.91;6224801;28;104482;-56
2022/05/21 04:25:00;;;;;;;2.60;2.40;;;;;;;22.07;32.37;95455.53;6233797;28;104461;-57
2022/05/21 04:28:05;;;;;;;2.43;2.00;;;;;;;22.09;32.73;95452.56;6230907;28;103167;-57
2022/05/21 04:31:08;;;;;;;3.27;2.00;;;;;;;22.15;32.49;95450.56;6212759;28;103125;-57
2022/05/21 04:34:11;;;;;;;2.40;2.13;;;;;;;22.25;32.90;95461.06;6226594;28;103167;-57
2022/05/21 04:37:14;;;;;;;3.63;3.13;;;;;;;22.27;33.28;95464.22;6229810;28;103261;-57
2022/05/21 04:40:20;;;;;;;5.90;3.63;;;;;;;22.26;33.43;95459.97;6235003;28;103327;-57
2022/05/21 04:43:25;;;;;;;4.20;3.30;;;;;;;22.29;33.83;95462.81;6215228;28;104412;-57
2022/05/21 04:46:32;;;;;;;3.23;2.90;;;;;;;22.31;33.89;95462.53;6224982;28;103408;-57
2022/05/21 04:49:35;;;;;;;3.70;3.30;;;;;;;22.33;33.83;95463.03;6232072;28;103252;-57
2022/05/21 04:52:39;;;;;;;3.40;3.10;;;;;;;22.32;34.03;95453.44;6218374;28;103729;-57
2022/05/21 04:55:42;;;;;;;5.67;3.43;;;;;;;22.33;34.07;95460.34;6233343;28;102997;-57
2022/05/21 04:58:46;;;;;;;3.80;3.40;;;;;;;22.34;34.83;95462.72;6223492;28;104153;-57
2022/05/21 05:01:50;;;;;;;3.47;3.17;;;;;;;22.38;34.29;95462.94;6233017;28;103501;-57
2022/05/21 05:04:53;;;;;;;5.80;3.70;;;;;;;22.33;33.92;95455.03;6210027;27;103387;-57
2022/05/21 05:07:56;;;;;;;10.63;4.30;;;;;;;22.21;34.36;95460.88;6214927;28;103632;-57
2022/05/21 05:10:59;;;;;;;11.33;4.40;;;;;;;22.09;33.95;95463.22;6226138;28;104673;-57
2022/05/21 05:14:03;;;;;;;9.00;4.40;;;;;;;22.08;33.87;95458.97;6233866;28;103188;-58
2022/05/21 05:17:07;;;;;;;13.60;4.57;;;;;;;22.14;34.65;95457.78;6221524;28;104250;-58
2022/05/21 05:20:11;;;;;;;6.83;3.60;;;;;;;22.24;34.42;95462.16;6217804;28;103160;-57
2022/05/21 05:23:14;;;;;;;5.10;3.43;;;;;;;22.18;34.37;95463.31;6230854;28;102882;-58
2022/05/21 05:26:17;;;;;;;6.23;3.77;;;;;;;22.02;33.83;95460.16;6224997;27;103975;-57
2022/05/21 05:29:22;;;;;;;3.50;3.20;;;;;;;21.23;35.38;95452.13;6230850;28;103028;-57
2022/05/21 05:32:25;;;;;;;7.47;3.90;;;;;;;21.48;34.79;95449.06;6234738;28;103505;-57
2022/05/21 05:35:28;;;;;;;15.30;4.60;;;;;;;21.70;35.21;95444.97;6235913;28;103595;-56
2022/05/21 05:38:31;;;;;;;12.40;4.50;;;;;;;21.67;34.74;95443.66;6225507;28;104021;-57
2022/05/21 05:41:38;;;;;;;32.40;5.03;;;;;;;21.84;35.31;95442.34;6235327;28;103102;-56
2022/05/21 05:44:42;;;;;;;9.60;3.80;;;;;;;22.02;34.79;95436.97;6235138;28;104303;-56
2022/05/21 05:47:45;;;;;;;6.63;3.97;;;;;;;22.13;34.52;95444.75;6235319;28;102849;-56
2022/05/21 05:50:48;;;;;;;4.43;4.00;;;;;;;22.22;34.07;95440.34;6224410;28;103374;-56
2022/05/21 05:53:52;;;;;;;6.73;4.37;;;;;;;22.29;34.45;95436.16;6235039;28;104215;-54
2022/05/21 05:56:55;;;;;;;6.47;4.87;;;;;;;22.36;34.45;95430.44;6234267;28;103258;-57
2022/05/21 05:59:59;;;;;;;15.87;6.47;;;;;;;22.44;34.41;95429.75;6229567;28;102758;-57
2022/05/21 06:03:02;;;;;;;17.30;6.47;;;;;;;22.51;34.89;95429.31;6224900;28;103202;-57
2022/05/21 06:06:06;;;;;;;12.30;6.00;;;;;;;22.57;34.76;95422.84;6232333;28;103982;-57
2022/05/21 06:09:09;;;;;;;16.83;6.23;;;;;;;22.60;34.59;95423.03;6233648;28;103014;-57
2022/05/21 06:12:12;;;;;;;11.30;6.43;;;;;;;22.69;35.89;95423.13;6223846;28;104224;-57
2022/05/21 06:15:17;;;;;;;9.83;6.93;;;;;;;22.76;34.94;95415.50;6233891;28;104077;-61
2022/05/21 06:18:21;;;;;;;9.93;6.00;;;;;;;22.74;34.66;95409.66;6231593;27;103071;-56
2022/05/21 06:21:24;;;;;;;12.43;7.40;;;;;;;22.76;35.17;95409.38;6236615;28;103129;-56
2022/05/21 06:24:27;;;;;;;11.53;7.27;;;;;;;22.79;34.70;95406.88;6227070;28;104176;-56
2022/05/21 06:27:31;;;;;;;9.60;6.60;;;;;;;22.83;35.03;95404.41;6220413;28;104516;-56
2022/05/21 06:30:38;;;;;;;12.43;7.83;;;;;;;22.80;35.10;95400.44;6212864;28;104107;-55
2022/05/21 06:33:41;;;;;;;11.60;6.77;;;;;;;22.84;34.97;95388.06;6212724;28;104101;-54
2022/05/21 06:36:44;;;;;;;10.20;7.10;;;;;;;22.93;35.10;95383.63;6203538;28;104101;-55
2022/05/21 06:39:47;;;;;;;6.90;6.23;;;;;;;23.00;34.76;95380.50;6227188;28;104327;-54
2022/05/21 06:42:50;;;;;;;9.47;7.07;;;;;;;23.00;34.88;95377.84;6222803;28;103175;-54
2022/05/21 06:45:55;;;;;;;9.40;7.27;;;;;;;23.01;34.66;95369.53;6228043;28;102988;-55
2022/05/21 06:48:58;;;;;;;9.00;7.63;;;;;;;23.10;35.10;95366.16;6237535;28;103299;-55
2022/05/21 06:52:01;;;;;;;10.53;8.30;;;;;;;23.14;34.99;95362.56;6237364;28;103229;-55
2022/05/21 06:55:05;;;;;;;9.07;8.17;;;;;;;23.22;34.71;95353.03;6235597;28;104284;-55
2022/05/21 06:58:08;;;;;;;9.80;8.33;;;;;;;23.29;35.45;95354.19;6223391;28;102929;-55
2022/05/21 07:01:13;;;;;;;9.90;8.00;;;;;;;23.36;34.82;95353.00;6236811;28;104733;-55
2022/05/21 07:07:32;;;;;;;8.83;7.40;;;;;;;23.40;35.32;95351.28;6238438;28;104133;-56
2022/05/21 07:07:44;;;;;;;9.47;8.43;;;;;;;23.47;35.21;95343.63;6238116;28;103138;-56
2022/05/21 07:10:48;;;;;;;9.80;7.47;;;;;;;23.46;34.74;95342.03;6228322;28;103249;-55
2022/05/21 07:13:51;;;;;;;10.90;7.50;;;;;;;23.49;34.93;95334.19;6237598;28;102992;-55
2022/05/21 07:16:57;;;;;;;9.30;7.73;;;;;;;23.56;34.74;95336.44;6237843;28;103254;-55
2022/05/21 07:20:03;;;;;;;7.83;6.70;;;;;;;23.51;34.62;95333.88;6228691;28;103159;-56
2022/05/21 07:23:06;;;;;;;11.03;6.77;;;;;;;23.55;34.87;95345.56;6237288;28;103000;-55
2022/05/21 07:26:09;;;;;;;9.97;6.10;;;;;;;23.57;34.52;95325.44;6237841;28;103181;-55
2022/05/21 07:29:12;;;;;;;9.33;5.80;;;;;;;23.54;34.70;95328.75;6235881;28;103258;-55
2022/05/21 07:32:22;;;;;;;5.40;4.63;;;;;;;23.49;34.17;95314.72;6226189;27;104274;-55
2022/05/21 07:35:28;;;;;;;7.07;5.13;;;;;;;23.51;34.13;95320.53;6229460;28;104641;-55
2022/05/21 07:38:31;;;;;;;7.23;4.97;;;;;;;23.66;34.22;95322.78;6212269;28;102708;-55
2022/05/21 07:41:34;;;;;;;5.37;4.77;;;;;;;23.72;34.02;95310.88;6212664;28;104535;-55
2022/05/21 07:44:37;;;;;;;7.87;5.20;;;;;;;23.78;33.92;95308.84;6202075;28;103433;-55
2022/05/21 07:47:41;;;;;;;13.00;7.50;;;;;;;23.81;33.96;95316.25;6212620;28;103887;-55
2022/05/21 07:50:49;;;;;;;9.80;8.10;;;;;;;23.84;34.02;95310.28;6212263;28;103220;-55
2022/05/21 07:53:53;;;;;;;8.10;6.83;;;;;;;23.89;33.79;95302.91;6206740;28;102773;-56
2022/05/21 07:56:57;;;;;;;7.20;6.00;;;;;;;23.85;34.02;95299.28;6208880;28;103047;-56
2022/05/21 08:00:00;;;;;;;7.93;6.50;;;;;;;23.83;33.91;95300.69;6210999;28;103240;-57
2022/05/21 08:03:08;;;;;;;6.70;6.00;;;;;;;23.83;33.80;95293.47;6212019;28;103090;-57
2022/05/21 08:06:11;;;;;;;6.00;5.47;;;;;;;23.85;33.86;95285.91;6202017;28;103079;-56
2022/05/21 08:09:14;;;;;;;6.43;5.57;;;;;;;23.89;33.78;95278.88;6212303;28;103012;-56
2022/05/21 08:12:18;;;;;;;8.00;6.93;;;;;;;23.94;33.99;95283.28;6211596;28;104117;-56
2022/05/21 08:15:22;;;;;;;7.23;6.53;;;;;;;23.94;33.46;95277.13;6212450;28;103823;-56
2022/05/21 08:18:28;;;;;;;7.90;6.47;;;;;;;23.93;33.85;95265.66;6200904;28;104061;-56
2022/05/21 08:21:31;;;;;;;8.43;6.27;;;;;;;23.96;33.70;95265.03;6212482;28;103213;-56
2022/05/21 08:27:56;;;;;;;8.43;7.10;;;;;;;24.07;33.46;95271.69;6206554;28;104240;-56
2022/05/21 08:31:00;;;;;;;10.10;7.30;;;;;;;24.10;33.23;95259.59;6214012;28;104350;-56
2022/05/21 08:34:04;;;;;;;12.37;7.30;;;;;;;24.10;33.59;95256.91;6236044;28;103015;-56
2022/05/21 08:37:07;;;;;;;7.23;6.53;;;;;;;24.13;33.82;95265.09;6213850;28;103070;-56
2022/05/21 08:40:16;;;;;;;9.43;7.23;;;;;;;24.18;33.94;95266.81;6204238;28;104138;-56
2022/05/21 08:43:23;;;;;;;8.30;7.03;;;;;;;24.13;33.71;95264.31;6211259;28;104076;-56
2022/05/21 08:46:37;;;;;;;10.40;6.33;;;;;;;24.11;33.74;95263.84;6211682;28;103013;-56
2022/05/21 08:49:51;;;;;;;8.67;7.60;;;;;;;24.06;33.84;95254.09;6211158;28;103066;-56
2022/05/21 08:53:02;;;;;;;12.13;8.00;;;;;;;24.10;33.86;95247.00;6201059;28;103835;-56
2022/05/21 08:56:06;;;;;;;12.67;8.77;;;;;;;24.12;33.77;95244.78;6216458;28;103279;-56
2022/05/21 08:59:10;;;;;;;10.87;6.83;;;;;;;24.17;33.29;95238.50;6234348;28;103196;-56
2022/05/21 09:02:26;;;;;;;11.87;7.00;;;;;;;24.16;33.55;95235.03;6224839;28;103344;-56
2022/05/21 09:05:31;;;;;;;9.10;7.40;;;;;;;24.12;33.78;95236.78;6235526;28;103468;-56
2022/05/21 09:08:42;;;;;;;12.23;7.60;;;;;;;24.10;34.08;95241.66;6236011;28;103286;-56
2022/05/21 09:11:49;;;;;;;9.67;7.80;;;;;;;24.29;33.96;95232.53;6235938;28;104563;-56
2022/05/21 09:14:54;;;;;;;9.30;8.00;;;;;;;24.29;34.57;95233.31;6224774;28;103034;-56
2022/05/21 09:18:01;;;;;;;11.20;7.40;;;;;;;24.30;34.81;95239.47;6235738;28;103177;-56
2022/05/21 09:21:12;;;;;;;12.63;7.90;;;;;;;24.09;34.69;95236.63;6235160;28;103263;-56
2022/05/21 09:24:34;;;;;;;8.27;7.03;;;;;;;24.04;35.08;95229.56;6232166;28;104069;-56
2022/05/21 09:27:41;;;;;;;9.50;8.03;;;;;;;24.15;34.72;95230.00;6228077;28;105226;-56
2022/05/21 09:30:56;;;;;;;13.40;8.10;;;;;;;24.30;34.60;95226.09;6231916;28;103063;-56
2022/05/21 09:34:14;;;;;;;13.67;8.50;;;;;;;24.23;34.26;95223.91;6232574;28;103013;-56
2022/05/21 09:37:30;;;;;;;9.50;8.03;;;;;;;24.13;34.82;95211.59;6225185;28;103038;-56
2022/05/21 09:40:36;;;;;;;11.63;7.80;;;;;;;24.08;34.56;95214.44;6235520;28;103982;-56
2022/05/21 09:47:12;;;;;;;9.33;7.17;;;;;;;24.11;34.34;95208.47;6231144;28;103980;-56
2022/05/21 09:50:22;;;;;;;7.97;7.27;;;;;;;24.06;34.48;95213.97;6230172;28;104006;-56
2022/05/21 09:53:37;;;;;;;8.97;8.00;;;;;;;24.02;34.55;95204.19;6234475;28;103075;-56
2022/05/21 09:56:49;;;;;;;9.10;8.20;;;;;;;23.98;34.00;95203.22;6235607;28;103803;-56
2022/05/21 10:00:06;;;;;;;9.60;8.70;;;;;;;24.04;34.04;95207.38;6225071;28;103083;-56
2022/05/21 10:03:11;;;;;;;10.80;9.77;;;;;;;24.00;34.02;95201.06;6234630;28;103174;-56
2022/05/21 10:06:21;;;;;;;14.40;12.90;;;;;;;23.95;33.74;95193.97;6234459;28;104325;-62
2022/05/21 10:12:55;;;;;;;13.87;12.67;;;;;;;23.87;32.76;95181.38;6229262;28;104307;-55
2022/05/21 10:16:06;;;;;;;11.43;10.43;;;;;;;23.84;32.76;95177.44;6235085;28;103997;-55
2022/05/21 10:19:16;;;;;;;15.20;13.60;;;;;;;23.87;32.85;95174.16;6234801;28;104069;-56
2022/05/21 10:22:39;;;;;;;21.30;19.30;;;;;;;23.86;33.26;95164.56;6225018;28;103778;-56
2022/05/21 10:25:52;;;;;;;15.10;13.90;;;;;;;23.77;32.28;95155.75;6234672;28;104138;-55
2022/05/21 10:29:13;;;;;;;12.10;11.10;;;;;;;23.83;31.85;95154.47;6234592;28;104176;-56
2022/05/21 10:32:29;;;;;;;12.27;11.23;;;;;;;23.90;32.04;95149.47;6233465;28;103178;-55
2022/05/21 10:35:51;;;;;;;10.00;9.00;;;;;;;23.87;31.72;95150.09;6219619;28;103472;-55
2022/05/21 10:39:11;;;;;;;10.80;9.77;;;;;;;23.85;31.24;95144.25;6209194;28;104076;-55
2022/05/21 10:42:36;;;;;;;10.23;9.33;;;;;;;23.77;31.64;95149.63;6209203;28;104065;-55
2022/05/21 10:45:42;;;;;;;10.90;9.80;;;;;;;23.89;32.05;95147.13;6198503;28;103132;-55
2022/05/21 10:48:57;;;;;;;11.07;10.07;;;;;;;23.94;32.21;95146.94;6208957;28;104325;-55
2022/05/21 10:52:03;;;;;;;10.40;9.50;;;;;;;23.96;32.06;95138.63;6209122;28;103036;-55
2022/05/21 10:55:17;;;;;;;10.43;9.40;;;;;;;23.97;32.45;95129.50;6205433;28;102984;-54
2022/05/21 10:58:47;;;;;;;10.30;9.40;;;;;;;23.97;32.40;95121.47;6203749;28;103132;-55
2022/05/21 11:02:00;;;;;;;9.87;9.00;;;;;;;23.97;32.63;95111.56;6209624;28;102945;-55
2022/05/21 11:05:30;;;;;;;9.67;8.80;;;;;;;23.97;32.37;95108.09;6208653;28;104265;-55
2022/05/21 11:08:43;;;;;;;9.10;8.27;;;;;;;23.98;32.97;95096.31;6200940;28;104225;-55
2022/05/21 11:11:57;;;;;;;9.17;8.37;;;;;;;23.98;32.64;95091.75;6209855;28;103094;-55
2022/05/21 11:15:06;;;;;;;8.83;8.13;;;;;;;23.98;32.89;95088.28;6211124;28;103259;-55
2022/05/21 11:18:20;;;;;;;9.57;8.67;;;;;;;23.96;33.27;95077.13;6204852;28;103172;-55
2022/05/21 11:21:29;;;;;;;8.77;8.07;;;;;;;23.97;33.38;95068.00;6206981;28;103841;-55
2022/05/21 11:24:38;;;;;;;9.03;8.27;;;;;;;23.97;33.53;95065.34;6213106;28;104254;-55
2022/05/21 11:27:49;;;;;;;8.97;8.13;;;;;;;23.98;33.52;95058.88;6212950;28;104232;-55
2022/05/21 11:30:57;;;;;;;8.10;7.40;;;;;;;23.98;33.36;95053.53;6201418;28;103240;-55
2022/05/21 11:37:30;;;;;;;7.87;7.20;;;;;;;23.94;33.46;95033.91;6165363;28;102979;-56
2022/05/21 11:48:12;;;;;;;7.03;6.43;;;;;;;23.95;33.26;95030.91;6211504;28;103133;-55
2022/05/21 11:51:25;;;;;;;7.37;6.77;;;;;;;23.95;33.48;95032.78;6212159;28;103114;-55
2022/05/21 11:55:01;;;;;;;7.07;6.50;;;;;;;23.93;33.88;95029.66;6201593;28;103026;-55
2022/05/21 11:58:05;;;;;;;8.00;7.30;;;;;;;23.93;33.72;95029.66;6211967;28;103402;-55
2022/05/21 12:01:08;;;;;;;7.77;7.17;;;;;;;23.93;33.37;95021.66;6212020;28;102796;-55
2022/05/21 12:04:25;;;;;;;6.73;6.23;;;;;;;23.92;33.83;95025.41;6201669;28;104081;-55
2022/05/21 12:08:00;;;;;;;7.40;6.70;;;;;;;23.94;33.72;95020.53;6212483;28;102886;-55
2022/05/21 12:11:08;;;;;;;8.20;6.77;;;;;;;23.92;33.52;95012.84;6212212;28;102974;-55
2022/05/21 12:14:21;;;;;;;6.97;6.47;;;;;;;23.92;34.17;95012.06;6212355;28;104181;-55
2022/05/21 12:17:43;;;;;;;7.27;6.60;;;;;;;23.90;34.25;95021.19;6199764;28;104177;-55
2022/05/21 12:20:49;;;;;;;7.27;6.67;;;;;;;23.92;33.75;95012.06;6211628;28;103127;-56
2022/05/21 12:24:05;;;;;;;7.87;7.07;;;;;;;23.95;33.99;95011.41;6211574;28;103076;-55
2022/05/21 12:27:22;;;;;;;6.93;6.30;;;;;;;23.95;33.85;95006.06;6206911;28;103141;-56
2022/05/21 12:30:29;;;;;;;7.07;5.60;;;;;;;23.95;33.63;95011.41;6217512;28;102985;-55
2022/05/21 12:33:42;;;;;;;6.23;5.67;;;;;;;23.91;34.03;95005.94;6211707;28;103213;-55
2022/05/21 12:37:03;;;;;;;6.10;5.60;;;;;;;23.90;34.25;94988.31;6230604;28;103782;-55
2022/05/21 12:40:18;;;;;;;6.20;5.70;;;;;;;23.91;34.31;94989.88;6228229;28;104223;-59
2022/05/21 12:43:21;;;;;;;6.70;6.03;;;;;;;23.92;34.25;94980.75;6236165;28;103148;-56
2022/05/21 12:46:27;;;;;;;6.30;5.80;;;;;;;23.91;34.46;94984.53;6235591;28;102987;-56
2022/05/21 12:49:31;;;;;;;6.33;5.83;;;;;;;23.92;34.61;94974.63;6215665;28;104295;-55
2022/05/21 12:52:46;;;;;;;5.90;5.30;;;;;;;23.92;34.48;94969.28;6210372;28;104349;-55
2022/05/21 12:56:00;;;;;;;6.50;6.00;;;;;;;23.93;34.49;94973.53;6210989;28;102663;-55
2022/05/21 12:59:09;;;;;;;5.90;4.63;;;;;;;23.94;34.46;94964.41;6211084;28;103050;-56
2022/05/21 13:02:20;;;;;;;5.17;4.73;;;;;;;23.95;34.31;94963.31;6201490;28;103335;-56
2022/05/21 13:05:31;;;;;;;7.17;5.33;;;;;;;23.96;34.80;94960.31;6211711;28;103095;-55
2022/05/21 13:08:40;;;;;;;6.17;5.67;;;;;;;23.93;34.50;94965.50;6210924;28;104162;-55
2022/05/21 13:11:45;;;;;;;5.80;5.30;;;;;;;23.94;34.60;94961.72;6206368;28;103185;-56
2022/05/21 13:14:50;;;;;;;5.90;5.40;;;;;;;23.93;34.72;94958.28;6207549;28;105652;-55
2022/05/21 13:18:06;;;;;;;6.87;5.27;;;;;;;23.94;34.63;94961.72;6210691;28;104566;-55
2022/05/21 13:21:19;;;;;;;8.73;8.03;;;;;;;23.89;34.19;94955.47;6210117;28;103296;-55
2022/05/21 13:24:36;;;;;;;10.93;9.83;;;;;;;23.90;34.44;94957.03;6199285;28;103958;-56
2022/05/21 13:27:47;;;;;;;12.93;11.73;;;;;;;23.95;34.44;94953.41;6210893;28;103174;-56
2022/05/21 13:30:51;;;;;;;11.83;10.83;;;;;;;23.90;34.65;94943.66;6208863;28;103110;-56
2022/05/21 13:33:55;;;;;;;12.13;11.03;;;;;;;23.92;34.67;94931.88;6205957;28;103226;-56
2022/05/21 13:37:01;;;;;;;12.30;11.10;;;;;;;23.92;34.43;94935.31;6225475;28;102864;-55
2022/05/21 13:40:09;;;;;;;11.53;10.30;;;;;;;23.93;34.48;94925.41;6234793;28;103178;-55
2022/05/21 13:43:13;;;;;;;12.47;11.27;;;;;;;23.95;35.08;94920.53;6236141;28;102851;-58
2022/05/21 13:46:24;;;;;;;12.20;11.00;;;;;;;23.90;34.60;94916.94;6225086;28;103962;-58
2022/05/21 13:49:31;;;;;;;12.40;11.13;;;;;;;23.90;34.54;94916.16;6235669;28;104019;-58
2022/05/21 13:52:35;;;;;;;9.00;8.20;;;;;;;23.93;34.26;94917.41;6224457;28;103093;-58
2022/05/21 13:55:55;;;;;;;6.83;6.17;;;;;;;23.94;33.93;94909.06;6210549;28;104305;-57
2022/05/21 13:59:12;;;;;;;6.60;5.93;;;;;;;23.97;33.52;94907.63;6200508;28;104122;-58
2022/05/21 14:02:27;;;;;;;6.83;6.23;;;;;;;23.96;34.40;94896.16;6209135;28;103128;-58
2022/05/21 14:05:33;;;;;;;6.60;6.00;;;;;;;23.97;34.27;94897.72;6209659;28;103228;-58
2022/05/21 14:08:38;;;;;;;5.80;5.20;;;;;;;23.97;34.53;94896.94;6200840;28;102895;-58
2022/05/21 14:11:51;;;;;;;5.73;5.23;;;;;;;23.99;33.99;94886.72;6210153;28;104228;-58
2022/05/21 14:14:55;;;;;;;6.53;5.93;;;;;;;23.97;34.22;94881.69;6210185;28;104283;-58
2022/05/21 14:18:01;;;;;;;5.30;4.90;;;;;;;23.96;33.99;94882.78;6209783;28;103169;-58
2022/05/21 14:21:18;;;;;;;7.00;5.50;;;;;;;23.96;34.23;94885.47;6199532;28;104278;-58
2022/05/21 14:24:27;;;;;;;5.80;5.30;;;;;;;23.98;34.41;94877.13;6209028;28;104188;-58
2022/05/21 14:27:31;;;;;;;5.70;5.10;;;;;;;23.98;34.41;94877.91;6209719;28;103963;-58
2022/05/21 14:30:38;;;;;;;6.37;5.77;;;;;;;23.95;34.68;94867.88;6205798;28;104096;-58
2022/05/21 14:33:53;;;;;;;5.97;5.33;;;;;;;23.98;34.64;94871.78;6204030;28;103436;-58
2022/05/21 14:36:56;;;;;;;6.10;5.40;;;;;;;23.96;34.64;94874.78;6230307;28;103385;-58
2022/05/21 14:40:03;;;;;;;5.80;5.30;;;;;;;23.98;34.41;94867.22;6235037;27;103029;-58
2022/05/21 14:43:10;;;;;;;5.40;4.90;;;;;;;23.99;34.72;94860.75;6228349;28;103380;-58
2022/05/21 14:49:31;;;;;;;4.97;4.57;;;;;;;24.02;36.30;94859.34;6238155;28;104411;-58
2022/05/21 14:52:49;;;;;;;5.40;4.90;;;;;;;24.02;36.98;94854.00;6238415;28;104198;-57
2022/05/21 14:55:53;;;;;;;9.10;6.50;;;;;;;24.03;38.38;94855.59;6227586;28;103024;-58
2022/05/21 14:58:58;;;;;;;11.00;6.60;;;;;;;24.04;39.84;94857.19;6238211;28;103131;-58
2022/05/21 15:02:02;;;;;;;7.80;6.97;;;;;;;24.08;38.85;94850.84;6238105;28;103430;-59